createdAt,value
2023-01-25T00:00:45.577Z,102034.97
2023-01-25T00:01:20.074Z,102036.69
2023-01-25T00:01:53.197Z,102034.94
2023-01-25T00:02:24.903Z,102034.09
2023-01-25T00:02:56.921Z,102034.97
2023-01-25T00:03:30.011Z,102038.41
2023-01-25T00:04:01.695Z,102035.88
2023-01-25T00:05:20.019Z,102038.44
2023-01-25T00:05:59.672Z,102038.41
2023-01-25T00:06:31.297Z,102037.53
2023-01-25T00:07:02.981Z,102033.22
2023-01-25T00:07:34.707Z,102037.47
2023-01-25T00:08:06.585Z,102034.03
2023-01-25T00:08:38.610Z,102037.44
2023-01-25T00:09:11.731Z,102036.53
2023-01-25T00:09:43.424Z,102033.91
2023-01-25T00:10:18.217Z,102039.91
2023-01-25T00:10:51.795Z,102038.22
2023-01-25T00:11:23.501Z,102039.09
2023-01-25T00:11:57.992Z,102037.41
2023-01-25T00:12:36.811Z,102040.81
2023-01-25T00:13:08.495Z,102039.91
2023-01-25T00:13:40.159Z,102040.75
2023-01-25T00:14:13.585Z,102040.75
2023-01-25T00:14:45.826Z,102033.03
2023-01-25T00:15:17.527Z,102033.03
2023-01-25T00:15:49.214Z,102032.19
2023-01-25T00:16:21.231Z,102036.41
2023-01-25T00:16:55.720Z,102038.09
2023-01-25T00:17:29.996Z,102042.41
2023-01-25T00:18:01.706Z,102041.47
2023-01-25T00:18:33.564Z,102047.44
2023-01-25T00:19:08.995Z,102047.44
2023-01-25T00:19:40.637Z,102044.88
2023-01-25T00:20:12.357Z,102042.31
2023-01-25T00:20:44.028Z,102047.44
2023-01-25T00:21:18.859Z,102049.16
2023-01-25T00:21:50.485Z,102044.00
2023-01-25T00:22:22.331Z,102039.75
2023-01-25T00:22:54.015Z,102044.88
2023-01-25T00:23:25.771Z,102050.03
2023-01-25T00:24:00.819Z,102050.94
2023-01-25T00:24:32.580Z,102046.69
2023-01-25T00:25:04.608Z,102046.66
2023-01-25T00:25:37.788Z,102049.19
2023-01-25T00:26:09.521Z,102046.63
2023-01-25T00:26:45.803Z,102053.47
2023-01-25T00:27:21.563Z,102050.97
2023-01-25T00:27:53.173Z,102046.69
2023-01-25T00:28:24.826Z,102043.19
2023-01-25T00:28:57.007Z,102043.16
2023-01-25T00:29:28.664Z,102051.72
2023-01-25T00:30:02.587Z,102049.16
2023-01-25T00:30:34.249Z,102049.97
2023-01-25T00:31:07.798Z,102044.81
2023-01-25T00:31:55.386Z,102045.66
2023-01-25T00:32:49.416Z,102049.94
2023-01-25T00:33:27.082Z,102049.03
2023-01-25T00:34:10.693Z,102055.88
2023-01-25T00:34:50.816Z,102056.75
2023-01-25T00:35:22.698Z,102056.81
2023-01-25T00:35:59.201Z,102059.38
2023-01-25T00:36:36.819Z,102065.44
2023-01-25T00:37:18.838Z,102064.59
2023-01-25T00:37:53.852Z,102061.97
2023-01-25T00:38:33.790Z,102062.81
2023-01-25T00:39:07.073Z,102063.69
2023-01-25T00:39:41.621Z,102064.59
2023-01-25T00:40:13.842Z,102068.03
2023-01-25T00:40:45.483Z,102064.66
2023-01-25T00:41:17.103Z,102060.38
2023-01-25T00:41:48.783Z,102063.81
2023-01-25T00:42:20.916Z,102067.22
2023-01-25T00:42:57.097Z,102064.66
2023-01-25T00:43:31.316Z,102058.69
2023-01-25T00:44:03.030Z,102061.25
2023-01-25T00:44:34.666Z,102061.25
2023-01-25T00:45:07.195Z,102063.88
2023-01-25T00:45:39.049Z,102061.34
2023-01-25T00:46:16.259Z,102060.47
2023-01-25T00:46:48.607Z,102056.19
2023-01-25T00:47:20.480Z,102057.03
2023-01-25T00:47:55.304Z,102057.03
2023-01-25T00:48:26.963Z,102057.03
2023-01-25T00:48:58.626Z,102051.91
2023-01-25T00:49:31.738Z,102057.03
2023-01-25T00:50:03.529Z,102052.69
2023-01-25T00:50:39.227Z,102058.72
2023-01-25T00:51:11.777Z,102060.47
2023-01-25T00:51:44.592Z,102058.72
2023-01-25T00:52:16.332Z,102063.81
2023-01-25T00:52:50.144Z,102056.09
2023-01-25T00:53:21.857Z,102057.81
2023-01-25T00:53:55.938Z,102050.09
2023-01-25T00:54:31.333Z,102050.97
2023-01-25T00:55:03.327Z,102053.53
2023-01-25T00:55:35.128Z,102057.81
2023-01-25T00:56:08.327Z,102052.69
2023-01-25T00:56:39.989Z,102061.31
2023-01-25T00:57:11.713Z,102057.88
2023-01-25T00:57:43.372Z,102056.16
2023-01-25T00:58:14.997Z,102054.41
2023-01-25T00:58:51.029Z,102050.09
2023-01-25T00:59:24.387Z,102062.09
2023-01-25T00:59:56.064Z,102059.53
2023-01-25T01:00:27.701Z,102060.38
2023-01-25T01:00:59.470Z,102059.47
2023-01-25T01:01:31.154Z,102061.22
2023-01-25T01:02:03.192Z,102058.66
2023-01-25T01:02:34.853Z,102063.81
2023-01-25T01:03:06.517Z,102061.25
2023-01-25T01:03:38.764Z,102062.97
2023-01-25T01:04:10.864Z,102057.03
2023-01-25T01:04:42.619Z,102059.59
2023-01-25T01:05:17.210Z,102056.19
2023-01-25T01:05:51.440Z,102059.59
2023-01-25T01:06:25.734Z,102052.75
2023-01-25T01:06:57.484Z,102062.97
2023-01-25T01:07:31.468Z,102060.38
2023-01-25T01:08:03.116Z,102068.09
2023-01-25T01:08:38.599Z,102065.53
2023-01-25T01:09:16.057Z,102067.25
2023-01-25T01:09:47.808Z,102068.97
2023-01-25T01:10:19.470Z,102063.81
2023-01-25T01:10:51.132Z,102065.53
2023-01-25T01:11:23.068Z,102067.25
2023-01-25T01:11:56.972Z,102063.81
2023-01-25T01:12:28.662Z,102061.16
2023-01-25T01:13:02.506Z,102063.75
2023-01-25T01:13:34.957Z,102069.72
2023-01-25T01:14:09.785Z,102058.53
2023-01-25T01:14:43.250Z,102069.66
2023-01-25T01:15:14.893Z,102068.81
2023-01-25T01:15:46.540Z,102067.09
2023-01-25T01:16:18.194Z,102065.38
2023-01-25T01:16:49.884Z,102069.66
2023-01-25T01:17:21.636Z,102062.81
2023-01-25T01:17:53.272Z,102058.50
2023-01-25T01:18:24.916Z,102068.78
2023-01-25T01:18:56.554Z,102058.47
2023-01-25T01:19:35.639Z,102063.59
2023-01-25T01:20:07.613Z,102058.47
2023-01-25T01:20:39.308Z,102060.22
2023-01-25T01:21:14.555Z,102057.56
2023-01-25T01:21:46.247Z,102062.63
2023-01-25T01:22:17.895Z,102061.84
2023-01-25T01:22:52.503Z,102065.22
2023-01-25T01:23:26.537Z,102064.41
2023-01-25T01:23:58.702Z,102066.09
2023-01-25T01:24:30.383Z,102062.69
2023-01-25T01:25:04.300Z,102063.47
2023-01-25T01:25:37.070Z,102063.50
2023-01-25T01:26:15.326Z,102063.50
2023-01-25T01:26:46.998Z,102061.75
2023-01-25T01:27:18.669Z,102061.72
2023-01-25T01:27:50.320Z,102065.19
2023-01-25T01:28:22.155Z,102066.03
2023-01-25T01:28:53.797Z,102065.19
2023-01-25T01:29:26.706Z,102069.47
2023-01-25T01:29:58.341Z,102068.56
2023-01-25T01:30:29.985Z,102065.97
2023-01-25T01:31:02.460Z,102067.59
2023-01-25T01:31:34.293Z,102071.84
2023-01-25T01:32:06.405Z,102070.16
2023-01-25T01:32:40.820Z,102066.75
2023-01-25T01:33:12.527Z,102070.19
2023-01-25T01:33:44.470Z,102064.19
2023-01-25T01:34:16.125Z,102072.72
2023-01-25T01:34:47.796Z,102070.16
2023-01-25T01:35:21.737Z,102079.59
2023-01-25T01:35:53.365Z,102074.44
2023-01-25T01:36:28.169Z,102079.56
2023-01-25T01:36:59.799Z,102076.06
2023-01-25T01:37:31.466Z,102080.31
2023-01-25T01:38:05.519Z,102078.53
2023-01-25T01:38:37.516Z,102075.13
2023-01-25T01:39:09.579Z,102079.38
2023-01-25T01:39:41.338Z,102069.97
2023-01-25T01:40:17.007Z,102080.16
2023-01-25T01:40:51.777Z,102074.25
2023-01-25T01:41:23.450Z,102076.00
2023-01-25T01:41:55.097Z,102070.06
2023-01-25T01:42:26.827Z,102071.72
2023-01-25T01:43:16.015Z,102073.41
2023-01-25T01:43:49.622Z,102075.09
2023-01-25T01:44:51.820Z,102076.81
2023-01-25T01:46:07.900Z,102070.91
2023-01-25T01:46:39.851Z,102079.50
2023-01-25T01:47:38.689Z,102076.06
2023-01-25T01:48:39.443Z,102077.84
2023-01-25T01:49:16.186Z,102070.13
2023-01-25T01:49:57.690Z,102070.00
2023-01-25T01:50:29.369Z,102075.13
2023-01-25T01:51:26.447Z,102074.31
2023-01-25T01:52:00.530Z,102070.94
2023-01-25T01:52:39.552Z,102064.91
2023-01-25T01:53:11.501Z,102075.19
2023-01-25T01:53:48.226Z,102067.50
2023-01-25T01:54:42.862Z,102075.22
2023-01-25T01:55:22.045Z,102069.22
2023-01-25T01:55:58.494Z,102070.16
2023-01-25T01:56:47.718Z,102076.94
2023-01-25T01:57:32.612Z,102074.41
2023-01-25T01:58:06.492Z,102076.94
2023-01-25T01:58:39.905Z,102075.22
2023-01-25T01:59:12.690Z,102072.69
2023-01-25T01:59:55.284Z,102071.84
2023-01-25T02:00:34.326Z,102072.72
2023-01-25T02:01:06.164Z,102070.16
2023-01-25T02:01:38.059Z,102068.44
2023-01-25T02:02:10.030Z,102069.28
2023-01-25T02:02:42.033Z,102069.31
2023-01-25T02:03:16.909Z,102070.19
2023-01-25T02:03:53.088Z,102066.75
2023-01-25T02:04:27.836Z,102069.28
2023-01-25T02:05:05.025Z,102062.47
2023-01-25T02:05:47.003Z,102067.63
2023-01-25T02:06:36.596Z,102064.09
2023-01-25T02:07:17.482Z,102070.16
2023-01-25T02:07:55.392Z,102065.00
2023-01-25T02:08:30.346Z,102065.84
2023-01-25T02:09:02.040Z,102066.72
2023-01-25T02:09:36.158Z,102070.06
2023-01-25T02:10:11.621Z,102065.78
2023-01-25T02:10:47.387Z,102058.06
2023-01-25T02:11:20.296Z,102065.69
2023-01-25T02:11:53.756Z,102063.13
2023-01-25T02:12:26.542Z,102058.88
2023-01-25T02:13:02.660Z,102060.53
2023-01-25T02:13:37.940Z,102064.84
2023-01-25T02:14:12.278Z,102064.91
2023-01-25T02:14:53.032Z,102063.22
2023-01-25T02:15:31.768Z,102052.06
2023-01-25T02:16:07.022Z,102054.66
2023-01-25T02:16:40.581Z,102057.22
2023-01-25T02:17:12.583Z,102054.63
2023-01-25T02:17:44.276Z,102057.16
2023-01-25T02:18:18.032Z,102047.78
2023-01-25T02:18:52.451Z,102047.81
2023-01-25T02:19:47.017Z,102052.97
2023-01-25T02:20:29.153Z,102047.81
2023-01-25T02:21:02.041Z,102051.16
2023-01-25T02:21:42.965Z,102048.50
2023-01-25T02:22:29.311Z,102053.63
2023-01-25T02:23:14.106Z,102048.50
2023-01-25T02:24:11.972Z,102051.03
2023-01-25T02:24:56.804Z,102045.84
2023-01-25T02:25:29.816Z,102049.31
2023-01-25T02:26:05.443Z,102041.56
2023-01-25T02:26:37.449Z,102045.81
2023-01-25T02:27:09.106Z,102043.34
2023-01-25T02:27:48.575Z,102046.75
2023-01-25T02:28:52.754Z,102041.63
2023-01-25T02:29:27.547Z,102043.28
2023-01-25T02:29:59.631Z,102050.09
2023-01-25T02:30:34.621Z,102043.25
2023-01-25T02:31:07.216Z,102038.97
2023-01-25T02:31:38.977Z,102044.13
2023-01-25T02:32:12.315Z,102039.00
2023-01-25T02:32:46.944Z,102042.31
2023-01-25T02:33:20.974Z,102040.59
2023-01-25T02:33:52.783Z,102042.31
2023-01-25T02:34:24.445Z,102038.03
2023-01-25T02:34:56.044Z,102037.25
2023-01-25T02:35:43.358Z,102035.47
2023-01-25T02:36:26.247Z,102037.19
2023-01-25T02:37:00.613Z,102038.88
2023-01-25T02:37:36.208Z,102033.75
2023-01-25T02:38:11.942Z,102031.19
2023-01-25T02:38:56.808Z,102035.38
2023-01-25T02:39:31.291Z,102033.75
2023-01-25T02:40:05.743Z,102034.56
2023-01-25T02:41:06.726Z,102033.59
2023-01-25T02:41:47.318Z,102039.69
2023-01-25T02:42:18.953Z,102034.56
2023-01-25T02:42:50.585Z,102033.72
2023-01-25T02:43:25.043Z,102034.59
2023-01-25T02:43:58.672Z,102028.56
2023-01-25T02:44:36.231Z,102034.56
2023-01-25T02:45:14.662Z,102029.47
2023-01-25T02:45:52.676Z,102027.75
2023-01-25T02:46:31.705Z,102029.47
2023-01-25T02:47:03.570Z,102030.31
2023-01-25T02:47:35.200Z,102034.53
2023-01-25T02:48:06.945Z,102023.38
2023-01-25T02:48:38.575Z,102030.13
2023-01-25T02:49:11.943Z,102026.72
2023-01-25T02:49:43.666Z,102019.88
2023-01-25T02:50:16.023Z,102023.25
2023-01-25T02:50:50.035Z,102026.69
2023-01-25T02:51:27.349Z,102026.69
2023-01-25T02:51:59.018Z,102021.59
2023-01-25T02:52:33.589Z,102017.28
2023-01-25T02:53:05.223Z,102015.56
2023-01-25T02:53:36.994Z,102018.13
2023-01-25T02:54:11.926Z,102017.28
2023-01-25T02:54:43.651Z,102014.66
2023-01-25T02:55:15.332Z,102017.16
2023-01-25T02:55:46.950Z,102019.66
2023-01-25T02:56:18.942Z,102013.72
2023-01-25T02:56:50.675Z,102012.06
2023-01-25T02:57:23.230Z,102010.38
2023-01-25T02:57:54.916Z,102008.63
2023-01-25T02:58:27.130Z,102010.34
2023-01-25T02:58:59.324Z,102011.19
2023-01-25T02:59:31.020Z,102011.19
2023-01-25T03:00:03.141Z,102005.22
2023-01-25T03:00:37.388Z,102006.03
2023-01-25T03:01:10.012Z,102005.19
2023-01-25T03:01:46.631Z,102009.47
2023-01-25T03:02:18.770Z,102010.38
2023-01-25T03:02:50.471Z,102007.84
2023-01-25T03:03:22.297Z,102007.91
2023-01-25T03:03:53.960Z,102007.88
2023-01-25T03:04:25.637Z,102007.88
2023-01-25T03:04:57.292Z,102006.16
2023-01-25T03:05:28.946Z,102008.72
2023-01-25T03:06:00.639Z,102010.44
2023-01-25T03:06:36.136Z,102007.03
2023-01-25T03:07:07.827Z,102006.16
2023-01-25T03:07:42.411Z,102007.03
2023-01-25T03:08:14.153Z,102007.84
2023-01-25T03:08:46.501Z,102006.94
2023-01-25T03:09:18.147Z,102013.00
2023-01-25T03:09:50.164Z,102004.47
2023-01-25T03:10:24.434Z,102009.66
2023-01-25T03:11:00.584Z,102011.28
2023-01-25T03:11:34.089Z,102008.72
2023-01-25T03:12:06.145Z,102003.59
2023-01-25T03:12:37.831Z,102009.50
2023-01-25T03:13:09.480Z,102009.41
2023-01-25T03:13:41.218Z,102007.75
2023-01-25T03:14:17.268Z,102004.34
2023-01-25T03:14:51.001Z,102004.31
2023-01-25T03:15:22.690Z,102001.78
2023-01-25T03:16:00.993Z,102008.69
2023-01-25T03:16:32.818Z,102005.28
2023-01-25T03:17:04.876Z,102006.16
2023-01-25T03:17:36.847Z,102007.03
2023-01-25T03:18:10.026Z,102003.63
2023-01-25T03:18:42.365Z,102002.00
2023-01-25T03:19:14.075Z,102002.88
2023-01-25T03:19:45.754Z,102000.28
2023-01-25T03:20:17.452Z,102000.25
2023-01-25T03:20:49.100Z,102003.69
2023-01-25T03:21:22.326Z,101990.88
2023-01-25T03:21:53.968Z,102003.66
2023-01-25T03:22:25.816Z,102002.75
2023-01-25T03:22:57.497Z,101999.34
2023-01-25T03:23:29.137Z,102004.47
2023-01-25T03:24:02.831Z,102001.03
2023-01-25T03:24:36.295Z,101994.19
2023-01-25T03:25:08.985Z,101999.31
2023-01-25T03:25:40.841Z,102004.44
2023-01-25T03:26:18.777Z,101998.34
2023-01-25T03:27:09.147Z,101997.44
2023-01-25T03:27:41.000Z,102006.84
2023-01-25T03:28:13.184Z,102000.00
2023-01-25T03:28:45.082Z,102007.66
2023-01-25T03:29:16.758Z,102001.69
2023-01-25T03:29:48.401Z,101997.41
2023-01-25T03:30:20.149Z,102000.84
2023-01-25T03:30:53.825Z,102003.38
2023-01-25T03:31:27.686Z,101994.88
2023-01-25T03:31:59.615Z,101999.09
2023-01-25T03:32:31.555Z,102002.53
2023-01-25T03:33:03.299Z,101993.13
2023-01-25T03:33:35.510Z,102000.72
2023-01-25T03:34:07.276Z,102003.38
2023-01-25T03:34:48.531Z,102009.31
2023-01-25T03:35:20.181Z,101999.00
2023-01-25T03:35:55.951Z,101998.97
2023-01-25T03:36:27.678Z,101999.84
2023-01-25T03:36:59.469Z,102000.72
2023-01-25T03:37:33.766Z,102000.63
2023-01-25T03:38:05.407Z,101998.81
2023-01-25T03:38:37.389Z,101998.91
2023-01-25T03:39:09.446Z,101997.22
2023-01-25T03:39:43.442Z,102003.28
2023-01-25T03:40:15.182Z,102001.56
2023-01-25T03:40:47.704Z,102004.16
2023-01-25T03:41:19.389Z,102002.56
2023-01-25T03:41:51.059Z,101998.28
2023-01-25T03:42:23.423Z,102005.97
2023-01-25T03:42:55.097Z,102002.44
2023-01-25T03:43:26.927Z,102002.41
2023-01-25T03:44:00.914Z,102002.50
2023-01-25T03:44:32.841Z,102006.84
2023-01-25T03:45:05.673Z,101999.09
2023-01-25T03:45:37.356Z,101997.31
2023-01-25T03:46:09.118Z,101999.00
2023-01-25T03:46:43.471Z,101999.03
2023-01-25T03:47:15.224Z,101999.03
2023-01-25T03:47:46.876Z,101998.28
2023-01-25T03:48:18.677Z,101999.13
2023-01-25T03:48:50.422Z,101998.28
2023-01-25T03:49:22.093Z,101993.13
2023-01-25T03:49:53.728Z,101993.91
2023-01-25T03:50:25.371Z,102002.44
2023-01-25T03:50:59.534Z,101993.91
2023-01-25T03:51:31.185Z,101994.75
2023-01-25T03:52:02.995Z,101999.84
2023-01-25T03:52:42.016Z,101993.88
2023-01-25T03:53:32.118Z,101993.88
2023-01-25T03:54:04.368Z,102001.66
2023-01-25T03:54:36.039Z,102005.97
2023-01-25T03:55:08.300Z,101994.84
2023-01-25T03:55:40.114Z,101997.31
2023-01-25T03:56:17.587Z,101997.31
2023-01-25T03:56:50.726Z,102001.59
2023-01-25T03:57:22.399Z,101996.44
2023-01-25T03:57:57.073Z,101993.84
2023-01-25T03:58:30.328Z,102005.88
2023-01-25T03:59:01.978Z,101997.31
2023-01-25T03:59:33.711Z,101999.91
2023-01-25T04:00:08.538Z,102003.38
2023-01-25T04:00:40.290Z,101993.91
2023-01-25T04:01:12.141Z,101999.03
2023-01-25T04:01:43.868Z,101998.19
2023-01-25T04:02:15.581Z,102000.72
2023-01-25T04:02:47.356Z,101999.09
2023-01-25T04:03:19.972Z,101999.13
2023-01-25T04:03:51.589Z,102001.72
2023-01-25T04:04:25.851Z,101995.69
2023-01-25T04:04:59.988Z,102003.41
2023-01-25T04:05:33.197Z,101998.28
2023-01-25T04:06:08.542Z,102000.84
2023-01-25T04:06:40.292Z,102000.84
2023-01-25T04:07:11.933Z,102002.47
2023-01-25T04:07:43.646Z,101994.78
2023-01-25T04:08:18.154Z,101998.22
2023-01-25T04:08:49.824Z,101996.56
2023-01-25T04:09:21.550Z,101999.16
2023-01-25T04:09:55.126Z,102001.72
2023-01-25T04:10:26.778Z,102001.69
2023-01-25T04:11:05.022Z,101998.22
2023-01-25T04:11:36.721Z,102000.72
2023-01-25T04:12:08.416Z,102004.16
2023-01-25T04:12:40.087Z,101999.00
2023-01-25T04:13:16.953Z,101990.47
2023-01-25T04:13:48.660Z,101999.78
2023-01-25T04:14:34.996Z,101993.84
2023-01-25T04:15:11.018Z,102000.72
2023-01-25T04:15:42.825Z,101998.13
2023-01-25T04:16:14.508Z,101993.81
2023-01-25T04:16:46.236Z,101993.03
2023-01-25T04:17:17.945Z,101987.91
2023-01-25T04:17:51.926Z,101998.13
2023-01-25T04:18:26.063Z,101988.78
2023-01-25T04:18:57.657Z,101993.91
2023-01-25T04:19:29.305Z,101992.22
2023-01-25T04:20:00.982Z,101984.50
2023-01-25T04:20:32.699Z,101990.56
2023-01-25T04:21:07.661Z,101994.78
2023-01-25T04:21:39.345Z,101995.59
2023-01-25T04:22:11.023Z,101993.03
2023-01-25T04:22:42.663Z,101998.25
2023-01-25T04:23:16.347Z,101988.78
2023-01-25T04:23:50.052Z,101999.09
2023-01-25T04:24:21.785Z,101995.69
2023-01-25T04:24:53.477Z,101998.28
2023-01-25T04:25:25.179Z,101997.34
2023-01-25T04:26:07.797Z,101986.25
2023-01-25T04:26:39.446Z,101998.25
2023-01-25T04:27:11.218Z,101998.28
2023-01-25T04:27:42.878Z,102003.38
2023-01-25T04:28:14.525Z,102004.16
2023-01-25T04:28:46.171Z,102001.59
2023-01-25T04:29:18.570Z,101997.31
2023-01-25T04:29:50.294Z,101999.94
2023-01-25T04:30:21.929Z,102005.03
2023-01-25T04:30:57.343Z,102002.47
2023-01-25T04:31:31.320Z,102003.28
2023-01-25T04:32:03.253Z,102002.41
2023-01-25T04:32:36.276Z,102002.34
2023-01-25T04:33:08.125Z,102004.03
2023-01-25T04:33:39.799Z,102003.97
2023-01-25T04:34:11.456Z,102009.16
2023-01-25T04:34:43.117Z,102009.06
2023-01-25T04:35:14.892Z,102003.91
2023-01-25T04:35:46.675Z,101997.06
2023-01-25T04:36:18.437Z,102005.63
2023-01-25T04:36:50.133Z,102001.34
2023-01-25T04:37:24.589Z,102002.13
2023-01-25T04:37:58.327Z,102013.22
2023-01-25T04:38:30.015Z,102014.16
2023-01-25T04:39:01.672Z,102007.28
2023-01-25T04:39:33.345Z,102008.03
2023-01-25T04:40:06.098Z,102006.38
2023-01-25T04:40:38.089Z,102012.38
2023-01-25T04:41:09.718Z,102008.91
2023-01-25T04:41:43.196Z,102004.72
2023-01-25T04:42:16.092Z,102003.91
2023-01-25T04:42:49.803Z,102005.47
2023-01-25T04:43:21.720Z,102007.19
2023-01-25T04:43:53.426Z,102008.97
2023-01-25T04:44:25.043Z,102003.03
2023-01-25T04:44:56.680Z,102004.78
2023-01-25T04:45:31.105Z,102004.81
2023-01-25T04:46:03.172Z,102004.81
2023-01-25T04:46:34.842Z,102003.03
2023-01-25T04:47:06.467Z,102007.38
2023-01-25T04:47:38.110Z,102003.03
2023-01-25T04:48:12.237Z,102013.28
2023-01-25T04:48:44.290Z,102003.03
2023-01-25T04:49:15.969Z,102004.75
2023-01-25T04:49:47.722Z,102013.25
2023-01-25T04:50:19.352Z,102000.34
2023-01-25T04:50:51.059Z,102002.09
2023-01-25T04:51:22.691Z,102004.75
2023-01-25T04:51:56.498Z,102004.78
2023-01-25T04:52:31.236Z,102003.03
2023-01-25T04:53:02.932Z,102008.91
2023-01-25T04:53:34.610Z,102007.97
2023-01-25T04:54:06.317Z,102007.13
2023-01-25T04:54:40.383Z,102003.69
2023-01-25T04:55:14.488Z,102002.00
2023-01-25T04:55:47.833Z,102004.44
2023-01-25T04:56:19.526Z,102001.09
2023-01-25T04:56:51.194Z,102000.31
2023-01-25T04:57:23.021Z,102006.28
2023-01-25T04:57:56.778Z,102007.03
2023-01-25T04:58:28.518Z,102000.28
2023-01-25T04:59:00.147Z,102003.72
2023-01-25T04:59:33.887Z,102001.22
2023-01-25T05:00:06.259Z,102004.56
2023-01-25T05:00:37.991Z,102004.59
2023-01-25T05:01:10.322Z,102002.91
2023-01-25T05:01:42.009Z,101998.66
2023-01-25T05:02:13.774Z,101997.81
2023-01-25T05:02:48.544Z,102003.78
2023-01-25T05:03:20.249Z,102009.72
2023-01-25T05:03:53.672Z,102006.34
2023-01-25T05:04:26.890Z,102008.91
2023-01-25T05:04:58.567Z,102010.66
2023-01-25T05:05:30.293Z,102005.50
2023-01-25T05:06:01.930Z,102010.63
2023-01-25T05:06:33.940Z,102008.91
2023-01-25T05:07:07.350Z,102009.72
2023-01-25T05:07:41.098Z,102007.97
2023-01-25T05:08:14.044Z,102009.69
2023-01-25T05:08:47.985Z,102010.63
2023-01-25T05:09:28.296Z,102018.34
2023-01-25T05:10:00.076Z,102015.75
2023-01-25T05:10:33.876Z,102013.22
2023-01-25T05:11:05.816Z,102013.25
2023-01-25T05:11:37.435Z,102015.84
2023-01-25T05:12:11.923Z,102009.03
2023-01-25T05:12:43.898Z,102007.34
2023-01-25T05:13:15.568Z,102009.09
2023-01-25T05:13:47.278Z,102005.66
2023-01-25T05:14:18.964Z,102003.06
2023-01-25T05:14:50.666Z,102001.44
2023-01-25T05:15:22.350Z,102002.34
2023-01-25T05:15:58.491Z,102002.31
2023-01-25T05:16:30.128Z,102007.47
2023-01-25T05:17:01.857Z,102006.56
2023-01-25T05:17:33.696Z,101997.97
2023-01-25T05:18:05.462Z,102014.22
2023-01-25T05:18:47.835Z,102005.72
2023-01-25T05:19:20.299Z,102009.03
2023-01-25T05:19:51.943Z,102015.81
2023-01-25T05:20:23.674Z,102008.00
2023-01-25T05:20:58.841Z,102001.22
2023-01-25T05:21:54.120Z,102014.06
2023-01-25T05:22:25.770Z,102016.66
2023-01-25T05:22:59.759Z,102008.97
2023-01-25T05:23:31.374Z,102008.91
2023-01-25T05:24:03.121Z,102004.72
2023-01-25T05:24:38.280Z,102003.78
2023-01-25T05:25:32.070Z,102005.50
2023-01-25T05:26:22.242Z,102014.16
2023-01-25T05:27:00.557Z,102012.44
2023-01-25T05:27:32.213Z,102015.81
2023-01-25T05:28:07.580Z,102008.91
2023-01-25T05:28:39.213Z,102008.84
2023-01-25T05:29:10.880Z,102016.53
2023-01-25T05:29:44.953Z,102013.09
2023-01-25T05:30:16.709Z,102015.66
2023-01-25T05:30:48.593Z,102013.94
2023-01-25T05:31:20.412Z,102016.44
2023-01-25T05:31:52.155Z,102012.16
2023-01-25T05:32:24.257Z,102015.66
2023-01-25T05:32:55.891Z,102016.63
2023-01-25T05:33:29.497Z,102017.47
2023-01-25T05:34:04.080Z,102013.97
2023-01-25T05:34:36.088Z,102019.97
2023-01-25T05:35:10.905Z,102014.06
2023-01-25T05:35:43.480Z,102013.19
2023-01-25T05:36:15.129Z,102010.63
2023-01-25T05:36:46.798Z,102013.13
2023-01-25T05:37:23.285Z,102012.28
2023-01-25T05:37:58.559Z,102007.13
2023-01-25T05:38:33.344Z,102007.13
2023-01-25T05:39:06.745Z,102004.63
2023-01-25T05:39:38.420Z,102008.03
2023-01-25T05:40:10.665Z,102008.81
2023-01-25T05:40:42.337Z,102007.88
2023-01-25T05:41:15.222Z,102017.28
2023-01-25T05:41:47.025Z,102007.00
2023-01-25T05:42:21.771Z,102008.72
2023-01-25T05:43:00.623Z,102007.00
2023-01-25T05:43:36.515Z,102008.81
2023-01-25T05:44:08.188Z,102009.16
2023-01-25T05:44:40.035Z,102014.66
2023-01-25T05:45:11.945Z,102011.19
2023-01-25T05:45:45.826Z,102005.97
2023-01-25T05:46:26.245Z,102006.75
2023-01-25T05:46:57.936Z,102005.09
2023-01-25T05:47:31.438Z,102002.44
2023-01-25T05:48:03.249Z,102002.44
2023-01-25T05:48:34.927Z,102002.44
2023-01-25T05:49:06.644Z,102008.53
2023-01-25T05:49:45.636Z,102010.25
2023-01-25T05:50:17.317Z,102007.81
2023-01-25T05:50:48.983Z,102008.34
2023-01-25T05:51:20.646Z,102005.50
2023-01-25T05:51:52.424Z,102009.72
2023-01-25T05:52:25.573Z,102002.00
2023-01-25T05:52:57.377Z,102007.13
2023-01-25T05:53:30.429Z,102005.34
2023-01-25T05:54:03.225Z,102005.22
2023-01-25T05:54:34.837Z,101998.34
2023-01-25T05:55:07.229Z,102001.69
2023-01-25T05:55:44.148Z,101997.44
2023-01-25T05:56:15.784Z,102004.34
2023-01-25T05:56:50.196Z,102007.78
2023-01-25T05:57:24.436Z,102004.34
2023-01-25T05:57:59.331Z,102003.47
2023-01-25T05:58:30.993Z,102003.47
2023-01-25T05:59:04.984Z,102001.75
2023-01-25T05:59:36.707Z,102007.69
2023-01-25T06:00:09.980Z,101999.97
2023-01-25T06:00:41.666Z,101999.97
2023-01-25T06:01:13.571Z,102001.69
2023-01-25T06:01:45.231Z,102003.41
2023-01-25T06:02:17.037Z,102008.56
2023-01-25T06:02:48.805Z,102005.97
2023-01-25T06:03:20.638Z,102006.84
2023-01-25T06:03:52.427Z,102007.69
2023-01-25T06:04:34.139Z,102008.59
2023-01-25T06:05:09.145Z,102010.22
2023-01-25T06:05:41.051Z,102009.31
2023-01-25T06:06:14.236Z,102006.72
2023-01-25T06:06:48.619Z,102005.84
2023-01-25T06:07:20.269Z,102006.72
2023-01-25T06:07:54.048Z,102010.22
2023-01-25T06:08:25.746Z,102010.13
2023-01-25T06:08:57.446Z,102014.47
2023-01-25T06:09:31.142Z,102010.22
2023-01-25T06:10:04.849Z,102016.13
2023-01-25T06:10:36.516Z,102007.59
2023-01-25T06:11:09.855Z,102016.22
2023-01-25T06:11:47.398Z,102004.25
2023-01-25T06:12:25.277Z,102008.44
2023-01-25T06:13:02.887Z,102003.38
2023-01-25T06:13:34.880Z,102009.34
2023-01-25T06:14:06.511Z,102002.44
2023-01-25T06:14:38.163Z,102007.59
2023-01-25T06:15:10.686Z,102000.78
2023-01-25T06:15:42.726Z,102008.59
2023-01-25T06:16:15.453Z,102002.56
2023-01-25T06:16:47.143Z,102003.41
2023-01-25T06:17:18.798Z,102009.41
2023-01-25T06:17:54.238Z,102005.13
2023-01-25T06:18:25.914Z,102001.72
2023-01-25T06:18:57.599Z,102011.19
2023-01-25T06:19:29.239Z,102000.84
2023-01-25T06:20:02.872Z,102007.66
2023-01-25T06:20:37.034Z,102010.16
2023-01-25T06:21:09.371Z,102011.06
2023-01-25T06:21:41.267Z,102008.50
2023-01-25T06:22:12.898Z,102012.72
2023-01-25T06:22:49.809Z,102010.22
2023-01-25T06:23:21.447Z,102012.81
2023-01-25T06:23:53.138Z,102019.69
2023-01-25T06:24:25.024Z,102021.44
2023-01-25T06:24:59.424Z,102028.31
2023-01-25T06:25:31.072Z,102020.63
2023-01-25T06:26:06.542Z,102024.91
2023-01-25T06:26:38.223Z,102025.72
2023-01-25T06:27:13.574Z,102026.59
2023-01-25T06:27:45.373Z,102024.91
2023-01-25T06:28:17.063Z,102028.31
2023-01-25T06:28:48.756Z,102029.25